createdAt,value
2018-10-05T00:00:35.393Z,8.60
2018-10-05T00:03:03.084Z,8.60
2018-10-05T00:05:30.828Z,8.60
2018-10-05T00:07:58.510Z,8.50
2018-10-05T00:10:26.196Z,8.40
2018-10-05T00:12:54.060Z,8.30
2018-10-05T00:15:21.741Z,8.20
2018-10-05T00:17:49.437Z,8.20
2018-10-05T00:20:17.255Z,8.30
2018-10-05T00:22:44.997Z,8.30
2018-10-05T00:25:12.706Z,8.20
2018-10-05T00:27:40.479Z,8.20
2018-10-05T00:30:08.270Z,8.30
2018-10-05T00:32:35.967Z,8.30
2018-10-05T00:35:03.781Z,8.40
2018-10-05T00:37:31.515Z,8.40
2018-10-05T00:39:59.365Z,8.40
2018-10-05T00:42:27.629Z,8.40
2018-10-05T00:44:55.428Z,8.30
2018-10-05T00:47:23.206Z,8.20
2018-10-05T00:49:50.916Z,8.20
2018-10-05T00:52:18.614Z,8.20
2018-10-05T00:54:46.305Z,8.10
2018-10-05T00:57:14.034Z,8.10
2018-10-05T00:59:41.930Z,8.10
2018-10-05T01:02:09.647Z,8.10
2018-10-05T01:04:37.469Z,8.00
2018-10-05T01:07:06.164Z,7.90
2018-10-05T01:09:34.132Z,8.00
2018-10-05T01:12:01.890Z,7.90
2018-10-05T01:14:30.435Z,7.80
2018-10-05T01:16:58.578Z,7.70
2018-10-05T01:19:26.272Z,7.80
2018-10-05T01:21:53.964Z,7.70
2018-10-05T01:24:22.654Z,7.60
2018-10-05T01:26:50.933Z,7.70
2018-10-05T01:29:18.715Z,7.80
2018-10-05T01:31:46.461Z,7.70
2018-10-05T01:34:14.169Z,7.80
2018-10-05T01:36:41.899Z,7.70
2018-10-05T01:39:09.719Z,7.80
2018-10-05T01:41:37.524Z,7.90
2018-10-05T01:44:05.562Z,8.00
2018-10-05T01:46:33.390Z,7.90
2018-10-05T01:49:01.135Z,7.90
2018-10-05T01:51:32.479Z,7.90
2018-10-05T01:54:01.090Z,7.80
2018-10-05T01:56:29.096Z,7.90
2018-10-05T01:58:56.799Z,7.80
2018-10-05T02:01:24.480Z,7.80
2018-10-05T02:03:52.427Z,7.70
2018-10-05T02:06:20.130Z,7.80
2018-10-05T02:08:47.832Z,7.70
2018-10-05T02:11:15.653Z,7.60
2018-10-05T02:13:43.389Z,7.50
2018-10-05T02:16:11.149Z,7.60
2018-10-05T02:18:38.896Z,7.60
2018-10-05T02:21:06.634Z,7.60
2018-10-05T02:23:34.335Z,7.60
2018-10-05T02:26:02.015Z,7.40
2018-10-05T02:28:29.950Z,7.40
2018-10-05T02:30:57.627Z,7.40
2018-10-05T02:33:25.358Z,7.40
2018-10-05T02:35:53.810Z,7.40
2018-10-05T02:38:21.515Z,6.20
2018-10-05T02:40:49.241Z,7.40
2018-10-05T02:43:16.917Z,7.50
2018-10-05T02:45:44.600Z,7.40
2018-10-05T02:48:12.274Z,7.30
2018-10-05T02:50:40.074Z,7.40
2018-10-05T02:53:07.810Z,7.40
2018-10-05T02:55:35.524Z,7.50
2018-10-05T02:58:03.212Z,7.50
2018-10-05T03:00:36.566Z,7.30
2018-10-05T03:03:04.270Z,7.20
2018-10-05T03:05:31.939Z,7.10
2018-10-05T03:07:59.654Z,7.20
2018-10-05T03:10:27.336Z,7.00
2018-10-05T03:12:54.984Z,6.90
2018-10-05T03:15:22.670Z,6.90
2018-10-05T03:17:50.341Z,6.80
2018-10-05T03:20:18.050Z,6.80
2018-10-05T03:22:45.721Z,6.90
2018-10-05T03:25:13.413Z,7.00
2018-10-05T03:27:41.114Z,7.00
2018-10-05T03:30:08.837Z,7.00
2018-10-05T03:32:36.515Z,7.00
2018-10-05T03:35:04.238Z,7.00
2018-10-05T03:37:32.940Z,7.10
2018-10-05T03:40:00.741Z,7.10
2018-10-05T03:42:28.616Z,7.10
2018-10-05T03:44:56.286Z,7.10
2018-10-05T03:47:24.160Z,7.00
2018-10-05T03:49:51.863Z,6.90
2018-10-05T03:52:19.628Z,7.00
2018-10-05T03:54:47.344Z,7.10
2018-10-05T03:57:15.052Z,7.00
2018-10-05T03:59:42.793Z,7.00
2018-10-05T04:02:10.473Z,7.10
2018-10-05T04:04:38.171Z,7.20
2018-10-05T04:07:05.906Z,7.10
2018-10-05T04:09:33.613Z,7.00
2018-10-05T04:12:01.353Z,7.10
2018-10-05T04:14:29.121Z,7.10
2018-10-05T04:16:56.804Z,7.10
2018-10-05T04:19:24.867Z,7.10
2018-10-05T04:21:52.575Z,7.10
2018-10-05T04:24:20.276Z,7.10
2018-10-05T04:26:47.977Z,7.00
2018-10-05T04:29:15.638Z,7.10
2018-10-05T04:31:43.372Z,6.90
2018-10-05T04:34:11.033Z,6.90
2018-10-05T04:36:38.727Z,6.90
2018-10-05T04:39:07.037Z,6.90
2018-10-05T04:41:34.815Z,6.90
2018-10-05T04:44:02.537Z,6.70
2018-10-05T04:46:30.205Z,6.70
2018-10-05T04:48:57.904Z,6.80
2018-10-05T04:51:25.858Z,7.00
2018-10-05T04:53:53.585Z,7.10
2018-10-05T04:56:21.273Z,7.10
2018-10-05T04:58:49.005Z,7.10
2018-10-05T05:01:16.682Z,7.10
2018-10-05T05:03:44.332Z,7.00
2018-10-05T05:06:12.013Z,7.00
2018-10-05T05:08:39.672Z,6.90
2018-10-05T05:11:07.406Z,6.90
2018-10-05T05:13:35.914Z,6.80
2018-10-05T05:16:03.654Z,6.70
2018-10-05T05:18:31.368Z,6.60
2018-10-05T05:20:59.106Z,6.70
2018-10-05T05:23:26.853Z,6.60
2018-10-05T05:25:54.552Z,6.70
2018-10-05T05:28:22.226Z,6.80
2018-10-05T05:30:49.908Z,6.90
2018-10-05T05:33:18.799Z,6.80
2018-10-05T05:35:46.504Z,6.80
2018-10-05T05:38:14.248Z,6.90
2018-10-05T05:40:41.928Z,6.90
2018-10-05T05:43:09.672Z,7.00
2018-10-05T05:45:37.374Z,6.90
2018-10-05T05:48:05.025Z,6.90
2018-10-05T05:50:32.744Z,7.20
2018-10-05T05:53:00.445Z,7.30
2018-10-05T05:55:28.140Z,7.30
2018-10-05T05:57:55.823Z,7.20
2018-10-05T06:00:23.504Z,7.30
2018-10-05T06:02:51.253Z,7.50
2018-10-05T06:05:19.147Z,7.50
2018-10-05T06:07:46.885Z,7.50
2018-10-05T06:10:14.690Z,7.50
2018-10-05T06:12:44.460Z,7.40
2018-10-05T06:15:12.242Z,7.50
2018-10-05T06:17:40.105Z,7.60
2018-10-05T06:20:07.856Z,7.50
2018-10-05T06:22:35.704Z,7.50
2018-10-05T06:25:03.421Z,7.60
2018-10-05T06:27:31.193Z,7.60
2018-10-05T06:29:58.838Z,7.70
2018-10-05T06:32:26.570Z,7.70
2018-10-05T06:34:54.470Z,7.70
2018-10-05T06:37:25.777Z,7.80
2018-10-05T06:39:53.513Z,7.80
2018-10-05T06:42:21.200Z,7.80
2018-10-05T06:44:48.900Z,7.80
2018-10-05T06:47:16.620Z,7.80
2018-10-05T06:49:44.322Z,7.80
2018-10-05T06:52:11.998Z,7.80
2018-10-05T06:54:39.682Z,7.80
2018-10-05T06:57:07.384Z,7.90
2018-10-05T06:59:35.480Z,8.10
2018-10-05T07:02:03.166Z,8.30
2018-10-05T07:04:30.837Z,8.50
2018-10-05T07:06:58.958Z,8.50
2018-10-05T07:09:26.649Z,8.70
2018-10-05T07:11:54.338Z,8.70
2018-10-05T07:14:22.034Z,8.80
2018-10-05T07:16:49.768Z,8.90
2018-10-05T07:19:17.460Z,9.10
2018-10-05T07:21:45.225Z,9.30
2018-10-05T07:24:12.947Z,9.40
2018-10-05T07:26:40.901Z,9.80
2018-10-05T07:29:08.723Z,10.10
2018-10-05T07:31:36.414Z,10.70
2018-10-05T07:34:04.547Z,11.70
2018-10-05T07:36:32.358Z,12.40
2018-10-05T07:39:00.060Z,12.90
2018-10-05T07:41:27.766Z,13.30
2018-10-05T07:43:55.505Z,13.90
2018-10-05T07:46:23.281Z,14.20
2018-10-05T07:48:51.188Z,14.40
2018-10-05T07:51:18.926Z,14.70
2018-10-05T07:53:46.662Z,15.00
2018-10-05T07:56:14.373Z,15.20
2018-10-05T07:58:42.150Z,15.10
2018-10-05T08:01:09.848Z,15.10
2018-10-05T08:03:37.568Z,14.40
2018-10-05T08:06:05.282Z,14.00
2018-10-05T08:08:33.015Z,13.80
2018-10-05T08:11:00.729Z,13.60
2018-10-05T08:13:28.454Z,13.60
2018-10-05T08:15:56.145Z,13.60
2018-10-05T08:18:23.838Z,13.60
2018-10-05T08:20:51.564Z,13.90
2018-10-05T08:23:19.248Z,14.00
2018-10-05T08:25:46.938Z,14.20
2018-10-05T08:28:14.644Z,14.30
2018-10-05T08:30:42.338Z,14.40
2018-10-05T08:33:10.117Z,14.50
2018-10-05T08:35:37.866Z,14.50
2018-10-05T08:38:06.407Z,14.70
2018-10-05T08:40:34.173Z,14.70
2018-10-05T08:43:01.950Z,14.80
2018-10-05T08:45:29.661Z,14.90
2018-10-05T08:47:57.388Z,14.90
2018-10-05T08:50:25.281Z,15.00
2018-10-05T08:52:53.554Z,15.10
2018-10-05T08:55:21.270Z,15.30
2018-10-05T08:57:48.956Z,15.80
2018-10-05T09:00:16.730Z,16.20
2018-10-05T09:02:44.381Z,16.60
2018-10-05T09:05:12.073Z,16.70
2018-10-05T09:07:39.753Z,17.00
2018-10-05T09:10:07.581Z,17.10
2018-10-05T09:12:35.235Z,17.20
2018-10-05T09:15:02.953Z,17.20
2018-10-05T09:17:30.650Z,17.00
2018-10-05T09:19:58.332Z,16.90
2018-10-05T09:22:26.046Z,16.90
2018-10-05T09:24:54.066Z,17.00
2018-10-05T09:27:21.808Z,17.20
2018-10-05T09:29:49.469Z,17.10
2018-10-05T09:32:24.221Z,17.30
2018-10-05T09:34:52.929Z,17.50
2018-10-05T09:37:20.739Z,17.60
2018-10-05T09:39:48.426Z,17.40
2018-10-05T09:42:16.087Z,17.40
2018-10-05T09:44:43.802Z,17.30
2018-10-05T09:47:11.589Z,17.40
2018-10-05T09:49:39.297Z,17.70
2018-10-05T09:52:07.026Z,17.90
2018-10-05T09:54:34.649Z,18.10
2018-10-05T09:57:02.361Z,18.20
2018-10-05T09:59:30.046Z,18.10
2018-10-05T10:02:03.236Z,18.20
2018-10-05T10:04:30.941Z,18.40
2018-10-05T10:06:58.844Z,18.70
2018-10-05T10:09:26.556Z,18.90
2018-10-05T10:11:54.253Z,19.00
2018-10-05T10:14:21.995Z,19.10
2018-10-05T10:16:49.668Z,19.40
2018-10-05T10:19:17.384Z,19.30
2018-10-05T10:21:45.066Z,19.20
2018-10-05T10:24:12.790Z,19.70
2018-10-05T10:26:40.498Z,19.90
2018-10-05T10:29:08.333Z,19.90
2018-10-05T10:31:35.877Z,20.00
2018-10-05T10:34:03.710Z,20.30
2018-10-05T10:36:31.489Z,20.40
2018-10-05T10:38:59.166Z,19.90
2018-10-05T10:41:26.839Z,20.10
2018-10-05T10:43:54.537Z,20.10
2018-10-05T10:46:22.246Z,20.00
2018-10-05T10:48:49.947Z,20.10
2018-10-05T10:51:17.841Z,20.00
2018-10-05T10:53:45.508Z,20.30
2018-10-05T10:56:13.268Z,20.50
2018-10-05T10:58:40.937Z,20.50
2018-10-05T11:01:10.770Z,20.70
2018-10-05T11:03:38.513Z,21.00
2018-10-05T11:06:06.316Z,20.70
2018-10-05T11:08:34.046Z,21.00
2018-10-05T11:11:01.800Z,21.10
2018-10-05T11:13:29.413Z,20.80
2018-10-05T11:15:57.085Z,20.90
2018-10-05T11:18:24.797Z,21.10
2018-10-05T11:20:52.503Z,21.30
2018-10-05T11:23:20.432Z,21.30
2018-10-05T11:25:48.130Z,21.40
2018-10-05T11:28:15.802Z,21.30
2018-10-05T11:30:43.489Z,21.20
2018-10-05T11:33:11.328Z,21.10
2018-10-05T11:35:39.126Z,21.40
2018-10-05T11:38:07.008Z,21.70
2018-10-05T11:40:34.805Z,21.50
2018-10-05T11:43:03.676Z,21.70
2018-10-05T11:45:36.015Z,22.00
2018-10-05T11:48:03.800Z,22.30
2018-10-05T11:50:32.063Z,22.80
2018-10-05T11:52:59.793Z,22.80
2018-10-05T11:55:27.512Z,22.80
2018-10-05T11:57:55.228Z,23.10
2018-10-05T12:00:22.993Z,23.00
2018-10-05T12:02:50.726Z,23.00
2018-10-05T12:05:18.551Z,23.20
2018-10-05T12:07:46.201Z,23.20
2018-10-05T12:10:14.360Z,23.80
2018-10-05T12:12:42.211Z,24.00
2018-10-05T12:15:09.910Z,23.60
2018-10-05T12:17:38.045Z,23.70
2018-10-05T12:20:05.777Z,23.90
2018-10-05T12:22:33.573Z,24.00
2018-10-05T12:25:01.336Z,24.20
2018-10-05T12:27:29.045Z,24.10
2018-10-05T12:29:56.888Z,24.30
2018-10-05T12:32:24.572Z,24.20
2018-10-05T12:34:52.572Z,23.60
2018-10-05T12:37:20.319Z,24.10
2018-10-05T12:39:48.043Z,24.40
2018-10-05T12:42:15.775Z,24.80
2018-10-05T12:44:43.511Z,25.00
2018-10-05T12:47:11.269Z,24.40
2018-10-05T12:49:38.997Z,24.80
2018-10-05T12:52:06.749Z,25.00
2018-10-05T12:54:34.502Z,25.60
2018-10-05T12:57:02.187Z,25.80
2018-10-05T12:59:30.158Z,25.60
2018-10-05T13:01:57.836Z,25.10
2018-10-05T13:04:25.570Z,24.80
2018-10-05T13:06:53.261Z,25.20
2018-10-05T13:09:21.253Z,25.20
2018-10-05T13:11:48.963Z,25.40
2018-10-05T13:14:16.735Z,25.20
2018-10-05T13:16:44.521Z,26.00
2018-10-05T13:19:12.241Z,26.60
2018-10-05T13:21:39.948Z,26.40
2018-10-05T13:24:07.639Z,26.20
2018-10-05T13:26:35.551Z,26.80
2018-10-05T13:29:11.066Z,26.00
2018-10-05T13:31:38.769Z,27.20
2018-10-05T13:34:06.529Z,26.50
2018-10-05T13:36:34.161Z,25.90
2018-10-05T13:39:01.913Z,25.70
2018-10-05T13:41:29.592Z,25.80
2018-10-05T13:43:57.335Z,26.30
2018-10-05T13:46:25.016Z,26.70
2018-10-05T13:48:52.695Z,26.10
2018-10-05T13:51:20.461Z,26.50
2018-10-05T13:53:48.151Z,26.40
2018-10-05T13:56:15.994Z,26.50
2018-10-05T13:58:43.721Z,26.10
2018-10-05T14:01:12.584Z,26.80
2018-10-05T14:03:40.293Z,26.50
2018-10-05T14:06:07.986Z,26.70
2018-10-05T14:08:35.693Z,27.50
2018-10-05T14:11:03.383Z,26.80
2018-10-05T14:13:31.072Z,27.00
2018-10-05T14:15:59.536Z,26.80
2018-10-05T14:18:27.234Z,27.20
2018-10-05T14:20:54.941Z,27.60
2018-10-05T14:23:22.655Z,27.50
2018-10-05T14:25:50.379Z,27.20
2018-10-05T14:28:18.114Z,27.10
2018-10-05T14:30:45.840Z,27.00
2018-10-05T14:33:13.580Z,27.30
2018-10-05T14:35:41.339Z,26.90
2018-10-05T14:38:09.099Z,27.60
2018-10-05T14:40:36.821Z,27.40
2018-10-05T14:43:04.512Z,27.10
2018-10-05T14:45:32.242Z,26.60
2018-10-05T14:47:59.974Z,26.20
2018-10-05T14:50:27.769Z,26.70
2018-10-05T14:52:55.541Z,26.10
2018-10-05T14:55:23.274Z,26.10
2018-10-05T14:57:51.022Z,26.50
2018-10-05T15:00:20.908Z,26.80
2018-10-05T15:02:48.661Z,27.10
2018-10-05T15:05:16.437Z,26.70
2018-10-05T15:07:44.213Z,27.00
2018-10-05T15:10:12.033Z,26.90
2018-10-05T15:12:39.847Z,26.90
2018-10-05T15:15:07.941Z,26.60
2018-10-05T15:17:35.701Z,25.50
2018-10-05T15:20:03.590Z,24.90
2018-10-05T15:22:37.531Z,24.20
2018-10-05T15:25:05.397Z,23.80
2018-10-05T15:27:33.496Z,23.40
2018-10-05T15:30:03.335Z,23.10
2018-10-05T15:32:31.093Z,22.90
2018-10-05T15:34:58.832Z,22.80
2018-10-05T15:37:26.557Z,22.60
2018-10-05T15:39:54.351Z,22.40
2018-10-05T15:42:22.117Z,22.30
2018-10-05T15:44:49.986Z,22.20
2018-10-05T15:47:17.717Z,22.10
2018-10-05T15:49:45.895Z,22.10
2018-10-05T15:52:13.662Z,22.00
2018-10-05T15:54:41.366Z,22.00
2018-10-05T15:57:10.050Z,21.80
2018-10-05T15:59:38.677Z,21.80
2018-10-05T16:02:06.431Z,21.80
2018-10-05T16:04:34.081Z,21.70
2018-10-05T16:07:01.847Z,21.60
2018-10-05T16:09:29.646Z,21.50
2018-10-05T16:11:57.399Z,21.40
2018-10-05T16:14:25.118Z,21.30
2018-10-05T16:16:52.928Z,21.40
2018-10-05T16:19:20.621Z,21.30
2018-10-05T16:21:48.371Z,21.10
2018-10-05T16:24:21.710Z,21.00
2018-10-05T16:26:49.716Z,20.90
2018-10-05T16:29:17.385Z,20.80
2018-10-05T16:31:45.244Z,20.60
2018-10-05T16:34:12.977Z,20.30
2018-10-05T16:36:40.685Z,20.10
2018-10-05T16:39:09.654Z,20.00
2018-10-05T16:41:37.322Z,19.80
2018-10-05T16:44:05.086Z,19.60
2018-10-05T16:46:32.985Z,19.50
2018-10-05T16:49:01.262Z,19.30
2018-10-05T16:51:29.625Z,19.20
2018-10-05T16:53:57.379Z,19.00
2018-10-05T16:56:25.226Z,18.80
2018-10-05T16:58:53.294Z,18.60
2018-10-05T17:01:20.977Z,18.50
2018-10-05T17:03:48.723Z,18.50
2018-10-05T17:06:16.543Z,18.40
2018-10-05T17:08:47.597Z,18.20
2018-10-05T17:11:15.606Z,18.00
2018-10-05T17:13:43.294Z,17.90
2018-10-05T17:16:11.034Z,17.80
2018-10-05T17:18:39.789Z,17.70
2018-10-05T17:21:07.507Z,17.60
2018-10-05T17:23:35.967Z,17.50
2018-10-05T17:26:03.656Z,17.30
2018-10-05T17:28:31.341Z,17.30
2018-10-05T17:30:59.134Z,17.20
2018-10-05T17:33:27.627Z,17.10
2018-10-05T17:35:55.264Z,17.10
2018-10-05T17:38:22.980Z,17.10
2018-10-05T17:40:50.712Z,17.00
2018-10-05T17:43:18.396Z,16.80
2018-10-05T17:45:46.080Z,16.80
2018-10-05T17:48:13.781Z,16.80
2018-10-05T17:50:41.490Z,16.60
2018-10-05T17:53:09.170Z,16.50
2018-10-05T17:55:36.959Z,16.50
2018-10-05T17:58:04.731Z,16.50
2018-10-05T18:00:32.431Z,16.50
2018-10-05T18:03:00.139Z,16.70
2018-10-05T18:05:27.841Z,16.70
2018-10-05T18:07:55.635Z,16.60
2018-10-05T18:10:23.657Z,16.60
2018-10-05T18:12:52.189Z,16.60
2018-10-05T18:15:19.873Z,16.50
2018-10-05T18:17:47.541Z,16.40
2018-10-05T18:20:16.358Z,16.30
2018-10-05T18:22:44.069Z,16.20
2018-10-05T18:25:11.770Z,16.30
2018-10-05T18:27:39.449Z,16.20
2018-10-05T18:30:07.158Z,16.10
2018-10-05T18:32:34.830Z,16.20
2018-10-05T18:35:02.557Z,16.10
2018-10-05T18:37:30.224Z,16.10
2018-10-05T18:39:57.917Z,16.10
2018-10-05T18:42:25.645Z,16.00
2018-10-05T18:44:53.437Z,16.00
2018-10-05T18:47:21.207Z,16.00
2018-10-05T18:49:48.876Z,15.90
2018-10-05T18:52:16.634Z,16.00
2018-10-05T18:54:44.314Z,15.90
2018-10-05T18:57:13.916Z,15.90
2018-10-05T18:59:41.965Z,15.90
2018-10-05T19:02:09.701Z,15.90
2018-10-05T19:04:37.417Z,16.00
2018-10-05T19:07:05.226Z,16.00
2018-10-05T19:09:32.939Z,16.00
2018-10-05T19:12:00.653Z,15.90
2018-10-05T19:14:28.352Z,15.80
2018-10-05T19:16:56.030Z,15.80
2018-10-05T19:19:23.898Z,15.80
2018-10-05T19:21:51.626Z,15.70
2018-10-05T19:24:19.304Z,15.70
2018-10-05T19:26:47.093Z,15.70
2018-10-05T19:29:14.809Z,15.70
2018-10-05T19:31:42.482Z,15.50
2018-10-05T19:34:10.150Z,15.50
2018-10-05T19:36:37.916Z,15.50
2018-10-05T19:39:06.974Z,15.40
2018-10-05T19:41:34.653Z,15.30
2018-10-05T19:44:02.594Z,15.20
2018-10-05T19:46:30.365Z,15.10
2018-10-05T19:48:58.073Z,15.20
2018-10-05T19:51:25.873Z,15.10
2018-10-05T19:53:53.684Z,15.10
2018-10-05T19:56:21.431Z,15.10
2018-10-05T19:58:49.123Z,15.10
2018-10-05T20:01:16.793Z,15.20
2018-10-05T20:03:45.338Z,15.20
2018-10-05T20:06:13.017Z,15.20
2018-10-05T20:08:40.821Z,15.30
2018-10-05T20:11:08.539Z,15.40
2018-10-05T20:13:36.265Z,15.40
2018-10-05T20:16:03.951Z,15.40
2018-10-05T20:18:31.722Z,15.40
2018-10-05T20:20:59.325Z,15.30
2018-10-05T20:23:27.005Z,15.20
2018-10-05T20:25:54.706Z,15.20
2018-10-05T20:28:22.558Z,15.10
2018-10-05T20:30:50.245Z,15.00
2018-10-05T20:33:17.945Z,14.90
2018-10-05T20:35:45.638Z,14.80
2018-10-05T20:38:13.365Z,14.70
2018-10-05T20:40:41.041Z,14.60
2018-10-05T20:43:08.916Z,14.50
2018-10-05T20:45:36.633Z,14.60
2018-10-05T20:48:04.318Z,14.50
2018-10-05T20:50:32.026Z,14.40
2018-10-05T20:52:59.740Z,14.40
2018-10-05T20:55:27.409Z,14.30
2018-10-05T20:57:55.101Z,14.20
2018-10-05T21:00:22.770Z,14.30
2018-10-05T21:02:50.477Z,14.20
2018-10-05T21:05:18.189Z,14.10
2018-10-05T21:07:45.858Z,14.10
2018-10-05T21:10:13.536Z,14.00
2018-10-05T21:12:41.223Z,13.90
2018-10-05T21:15:08.961Z,13.80
2018-10-05T21:17:36.594Z,13.80
2018-10-05T21:20:04.358Z,13.80
2018-10-05T21:22:32.018Z,13.80
2018-10-05T21:24:59.701Z,13.80
2018-10-05T21:27:27.378Z,13.80
2018-10-05T21:29:55.101Z,13.70
2018-10-05T21:32:22.761Z,13.60
2018-10-05T21:34:50.437Z,13.60
2018-10-05T21:37:18.122Z,13.40
2018-10-05T21:39:45.785Z,13.30
2018-10-05T21:42:13.807Z,13.30
2018-10-05T21:44:41.486Z,13.40
2018-10-05T21:47:09.199Z,13.30
2018-10-05T21:49:36.958Z,13.20
2018-10-05T21:52:05.070Z,13.20
2018-10-05T21:54:32.804Z,13.20
2018-10-05T21:57:00.487Z,13.20
2018-10-05T21:59:28.214Z,13.10
2018-10-05T22:01:55.896Z,13.00
2018-10-05T22:04:23.626Z,12.90
2018-10-05T22:06:57.889Z,12.80
2018-10-05T22:09:25.593Z,12.70
2018-10-05T22:11:53.274Z,12.80
2018-10-05T22:14:20.968Z,12.80
2018-10-05T22:16:48.680Z,12.80
2018-10-05T22:19:16.366Z,12.80
2018-10-05T22:21:44.064Z,12.80
2018-10-05T22:24:11.733Z,12.70
2018-10-05T22:26:39.502Z,12.70
2018-10-05T22:29:07.194Z,12.70
2018-10-05T22:31:34.882Z,12.70
2018-10-05T22:34:02.626Z,12.60
2018-10-05T22:36:30.495Z,12.50
2018-10-05T22:38:58.198Z,12.40
2018-10-05T22:41:25.868Z,12.50
2018-10-05T22:43:53.601Z,12.50
2018-10-05T22:46:21.286Z,12.60
2018-10-05T22:48:49.134Z,12.60
2018-10-05T22:51:16.960Z,12.60
2018-10-05T22:53:45.361Z,12.50
2018-10-05T22:56:13.143Z,12.40
2018-10-05T22:58:40.928Z,12.40
2018-10-05T23:01:08.740Z,12.60
2018-10-05T23:03:36.418Z,12.70
2018-10-05T23:06:04.122Z,12.60
2018-10-05T23:08:31.808Z,12.70
2018-10-05T23:10:59.525Z,12.70
2018-10-05T23:13:27.200Z,12.80
2018-10-05T23:15:54.913Z,12.60
2018-10-05T23:18:22.618Z,12.30
2018-10-05T23:20:50.293Z,12.10
2018-10-05T23:23:17.977Z,12.10
2018-10-05T23:25:45.657Z,12.10
2018-10-05T23:28:13.399Z,12.10
2018-10-05T23:30:41.077Z,12.20
2018-10-05T23:33:08.802Z,12.30
2018-10-05T23:35:36.548Z,12.40
2018-10-05T23:38:04.278Z,12.40
2018-10-05T23:40:31.966Z,12.30
2018-10-05T23:42:59.640Z,12.30
2018-10-05T23:45:27.398Z,12.20
2018-10-05T23:47:55.064Z,12.30
2018-10-05T23:50:22.752Z,12.40
2018-10-05T23:52:51.416Z,12.40
2018-10-05T23:55:19.516Z,12.40
2018-10-05T23:57:47.655Z,12.60
